sensor_id;sensor_type;location;lat;lon;timestamp;pressure;altitude;pressure_sealevel;temperature;humidity
70976;BME280;58635;51.198;6.010;2023-06-10T00:01:51;101197.34;;;26.86;38.15
70976;BME280;58635;51.198;6.010;2023-06-10T00:04:39;101200.31;;;26.85;37.86
70976;BME280;58635;51.198;6.010;2023-06-10T00:07:23;101203.75;;;26.85;38.10
70976;BME280;58635;51.198;6.010;2023-06-10T00:10:07;101206.97;;;26.82;38.06
70976;BME280;58635;51.198;6.010;2023-06-10T00:12:51;101202.28;;;26.79;37.97
70976;BME280;58635;51.198;6.010;2023-06-10T00:15:35;101195.94;;;26.75;38.29
70976;BME280;58635;51.198;6.010;2023-06-10T00:18:20;101205.28;;;26.72;38.41
70976;BME280;58635;51.198;6.010;2023-06-10T00:21:05;101202.44;;;26.69;38.42
70976;BME280;58635;51.198;6.010;2023-06-10T00:23:49;101207.31;;;26.62;38.49
70976;BME280;58635;51.198;6.010;2023-06-10T00:26:33;101202.59;;;26.59;38.26
70976;BME280;58635;51.198;6.010;2023-06-10T00:29:17;101206.69;;;26.51;38.77
70976;BME280;58635;51.198;6.010;2023-06-10T00:32:01;101204.44;;;26.44;38.53
70976;BME280;58635;51.198;6.010;2023-06-10T00:34:45;101206.88;;;26.41;38.77
70976;BME280;58635;51.198;6.010;2023-06-10T00:37:29;101209.28;;;26.37;39.13
70976;BME280;58635;51.198;6.010;2023-06-10T00:40:14;101207.50;;;26.33;38.80
70976;BME280;58635;51.198;6.010;2023-06-10T00:42:58;101204.63;;;26.29;39.29
70976;BME280;58635;51.198;6.010;2023-06-10T00:45:42;101215.78;;;26.26;39.05
70976;BME280;58635;51.198;6.010;2023-06-10T00:48:27;101214.50;;;26.23;39.16
70976;BME280;58635;51.198;6.010;2023-06-10T00:51:11;101210.09;;;26.19;39.28
70976;BME280;58635;51.198;6.010;2023-06-10T00:53:56;101212.75;;;26.19;39.04
70976;BME280;58635;51.198;6.010;2023-06-10T00:56:39;101209.84;;;26.15;39.09
70976;BME280;58635;51.198;6.010;2023-06-10T00:59:28;101219.47;;;26.11;39.31
70976;BME280;58635;51.198;6.010;2023-06-10T01:02:14;101211.88;;;26.05;39.27
70976;BME280;58635;51.198;6.010;2023-06-10T01:04:59;101202.41;;;25.99;39.42
70976;BME280;58635;51.198;6.010;2023-06-10T01:07:56;101208.78;;;25.98;39.76
70976;BME280;58635;51.198;6.010;2023-06-10T01:10:52;101206.19;;;25.92;39.83
70976;BME280;58635;51.198;6.010;2023-06-10T01:13:40;101206.28;;;25.87;39.59
70976;BME280;58635;51.198;6.010;2023-06-10T01:16:25;101204.97;;;25.85;39.93
70976;BME280;58635;51.198;6.010;2023-06-10T01:19:09;101210.06;;;25.81;39.70
70976;BME280;58635;51.198;6.010;2023-06-10T01:21:53;101214.34;;;25.77;39.67
70976;BME280;58635;51.198;6.010;2023-06-10T01:24:38;101205.91;;;25.75;39.74
70976;BME280;58635;51.198;6.010;2023-06-10T01:27:26;101209.13;;;25.72;40.00
70976;BME280;58635;51.198;6.010;2023-06-10T01:30:18;101205.72;;;25.66;39.99
70976;BME280;58635;51.198;6.010;2023-06-10T01:33:08;101209.72;;;25.64;40.02
70976;BME280;58635;51.198;6.010;2023-06-10T01:35:53;101212.16;;;25.60;40.54
70976;BME280;58635;51.198;6.010;2023-06-10T01:38:42;101217.50;;;25.55;40.23
70976;BME280;58635;51.198;6.010;2023-06-10T01:41:28;101211.19;;;25.51;40.67
70976;BME280;58635;51.198;6.010;2023-06-10T01:44:12;101221.84;;;25.46;40.64
70976;BME280;58635;51.198;6.010;2023-06-10T01:47:00;101218.19;;;25.42;40.59
70976;BME280;58635;51.198;6.010;2023-06-10T01:49:44;101215.53;;;25.42;40.30
70976;BME280;58635;51.198;6.010;2023-06-10T01:52:28;101222.19;;;25.40;40.46
70976;BME280;58635;51.198;6.010;2023-06-10T01:55:12;101219.03;;;25.38;40.78
70976;BME280;58635;51.198;6.010;2023-06-10T01:57:56;101209.25;;;25.33;40.66
70976;BME280;58635;51.198;6.010;2023-06-10T02:00:40;101214.34;;;25.29;40.55
70976;BME280;58635;51.198;6.010;2023-06-10T02:03:24;101224.72;;;25.26;41.07
70976;BME280;58635;51.198;6.010;2023-06-10T02:06:08;101227.16;;;25.22;40.82
70976;BME280;58635;51.198;6.010;2023-06-10T02:08:52;101227.19;;;25.17;40.92
70976;BME280;58635;51.198;6.010;2023-06-10T02:11:36;101228.53;;;25.15;41.00
70976;BME280;58635;51.198;6.010;2023-06-10T02:14:20;101230.97;;;25.11;41.22
70976;BME280;58635;51.198;6.010;2023-06-10T02:17:04;101224.63;;;25.07;40.90
70976;BME280;58635;51.198;6.010;2023-06-10T02:19:49;101231.84;;;25.01;41.38
70976;BME280;58635;51.198;6.010;2023-06-10T02:22:37;101226.53;;;24.96;41.59
70976;BME280;58635;51.198;6.010;2023-06-10T02:25:21;101239.84;;;24.91;41.58
70976;BME280;58635;51.198;6.010;2023-06-10T02:28:05;101234.56;;;24.86;41.73
70976;BME280;58635;51.198;6.010;2023-06-10T02:30:49;101236.19;;;24.82;41.74
70976;BME280;58635;51.198;6.010;2023-06-10T02:33:33;101242.06;;;24.79;41.38
70976;BME280;58635;51.198;6.010;2023-06-10T02:36:17;101241.81;;;24.75;41.50
70976;BME280;58635;51.198;6.010;2023-06-10T02:39:01;101233.41;;;24.68;41.78
70976;BME280;58635;51.198;6.010;2023-06-10T02:41:46;101236.63;;;24.65;42.12
70976;BME280;58635;51.198;6.010;2023-06-10T02:44:30;101240.84;;;24.61;41.99
70976;BME280;58635;51.198;6.010;2023-06-10T02:47:14;101231.13;;;24.57;41.91
70976;BME280;58635;51.198;6.010;2023-06-10T02:49:58;101236.16;;;24.53;41.97
70976;BME280;58635;51.198;6.010;2023-06-10T02:52:43;101233.53;;;24.48;42.08
70976;BME280;58635;51.198;6.010;2023-06-10T02:55:27;101241.25;;;24.44;42.29
70976;BME280;58635;51.198;6.010;2023-06-10T02:58:11;101225.16;;;24.41;42.25
70976;BME280;58635;51.198;6.010;2023-06-10T03:00:55;101233.59;;;24.38;42.47
70976;BME280;58635;51.198;6.010;2023-06-10T03:03:38;101233.38;;;24.34;42.54
70976;BME280;58635;51.198;6.010;2023-06-10T03:06:25;101235.22;;;24.34;42.53
70976;BME280;58635;51.198;6.010;2023-06-10T03:09:10;101235.78;;;24.31;42.35
70976;BME280;58635;51.198;6.010;2023-06-10T03:11:54;101237.88;;;24.29;42.73
70976;BME280;58635;51.198;6.010;2023-06-10T03:14:38;101237.34;;;24.27;42.75
70976;BME280;58635;51.198;6.010;2023-06-10T03:17:22;101236.56;;;24.26;42.62
70976;BME280;58635;51.198;6.010;2023-06-10T03:20:06;101237.63;;;24.25;42.65
70976;BME280;58635;51.198;6.010;2023-06-10T03:22:54;101236.31;;;24.23;42.83
70976;BME280;58635;51.198;6.010;2023-06-10T03:25:37;101249.81;;;24.21;43.03
70976;BME280;58635;51.198;6.010;2023-06-10T03:28:21;101245.88;;;24.18;42.99
70976;BME280;58635;51.198;6.010;2023-06-10T03:31:05;101245.34;;;24.16;42.92
70976;BME280;58635;51.198;6.010;2023-06-10T03:33:49;101239.81;;;24.13;42.99
70976;BME280;58635;51.198;6.010;2023-06-10T03:36:33;101245.88;;;24.13;42.88
70976;BME280;58635;51.198;6.010;2023-06-10T03:39:17;101242.72;;;24.11;42.86
70976;BME280;58635;51.198;6.010;2023-06-10T03:42:01;101246.72;;;24.09;42.78
70976;BME280;58635;51.198;6.010;2023-06-10T03:44:45;101250.41;;;24.08;43.29
70976;BME280;58635;51.198;6.010;2023-06-10T03:47:34;101247.00;;;24.02;43.12
70976;BME280;58635;51.198;6.010;2023-06-10T03:50:19;101246.47;;;24.00;43.06
70976;BME280;58635;51.198;6.010;2023-06-10T03:53:03;101255.47;;;23.99;43.18
70976;BME280;58635;51.198;6.010;2023-06-10T03:55:48;101255.47;;;23.99;43.11
70976;BME280;58635;51.198;6.010;2023-06-10T03:58:32;101254.69;;;23.99;43.18
70976;BME280;58635;51.198;6.010;2023-06-10T04:01:16;101255.47;;;23.99;42.98
70976;BME280;58635;51.198;6.010;2023-06-10T04:04:01;101256.81;;;23.97;43.18
70976;BME280;58635;51.198;6.010;2023-06-10T04:06:45;101261.03;;;23.98;43.01
70976;BME280;58635;51.198;6.010;2023-06-10T04:09:30;101261.81;;;23.98;43.36
70976;BME280;58635;51.198;6.010;2023-06-10T04:12:14;101259.44;;;23.97;43.44
70976;BME280;58635;51.198;6.010;2023-06-10T04:14:58;101264.72;;;23.97;43.28
70976;BME280;58635;51.198;6.010;2023-06-10T04:17:42;101257.88;;;23.96;43.34
70976;BME280;58635;51.198;6.010;2023-06-10T04:20:27;101261.81;;;23.98;43.78
70976;BME280;58635;51.198;6.010;2023-06-10T04:23:10;101269.47;;;24.00;43.62
70976;BME280;58635;51.198;6.010;2023-06-10T04:25:54;101257.06;;;24.00;43.43
70976;BME280;58635;51.198;6.010;2023-06-10T04:28:38;101272.34;;;24.03;43.62
70976;BME280;58635;51.198;6.010;2023-06-10T04:31:22;101268.41;;;24.06;43.39
70976;BME280;58635;51.198;6.010;2023-06-10T04:34:07;101274.72;;;24.10;43.57
70976;BME280;58635;51.198;6.010;2023-06-10T04:36:51;101267.81;;;24.14;43.26
70976;BME280;58635;51.198;6.010;2023-06-10T04:39:35;101269.91;;;24.22;43.19
70976;BME280;58635;51.198;6.010;2023-06-10T04:42:19;101268.53;;;24.30;43.12
70976;BME280;58635;51.198;6.010;2023-06-10T04:45:04;101268.75;;;24.38;43.19
70976;BME280;58635;51.198;6.010;2023-06-10T04:47:48;101261.84;;;24.47;43.27
70976;BME280;58635;51.198;6.010;2023-06-10T04:50:32;101267.06;;;24.58;42.98
70976;BME280;58635;51.198;6.010;2023-06-10T04:53:16;101262.78;;;24.67;43.07
70976;BME280;58635;51.198;6.010;2023-06-10T04:56:00;101264.56;;;24.76;42.40
70976;BME280;58635;51.198;6.010;2023-06-10T04:58:44;101265.78;;;24.89;42.45
70976;BME280;58635;51.198;6.010;2023-06-10T05:01:28;101268.34;;;24.99;42.31
70976;BME280;58635;51.198;6.010;2023-06-10T05:04:12;101272.75;;;25.14;42.10
70976;BME280;58635;51.198;6.010;2023-06-10T05:06:56;101273.94;;;25.27;42.01
70976;BME280;58635;51.198;6.010;2023-06-10T05:09:40;101269.34;;;25.38;41.74
70976;BME280;58635;51.198;6.010;2023-06-10T05:12:24;101273.75;;;25.47;41.28
70976;BME280;58635;51.198;6.010;2023-06-10T05:15:08;101274.16;;;25.59;41.26
70976;BME280;58635;51.198;6.010;2023-06-10T05:17:52;101277.72;;;25.74;41.34
70976;BME280;58635;51.198;6.010;2023-06-10T05:20:36;101274.38;;;25.87;41.02
70976;BME280;58635;51.198;6.010;2023-06-10T05:23:20;101273.91;;;26.04;40.79
70976;BME280;58635;51.198;6.010;2023-06-10T05:26:05;101278.72;;;26.20;40.45
70976;BME280;58635;51.198;6.010;2023-06-10T05:28:49;101280.38;;;26.35;40.55
70976;BME280;58635;51.198;6.010;2023-06-10T05:31:33;101278.31;;;26.51;40.21
70976;BME280;58635;51.198;6.010;2023-06-10T05:34:17;101279.69;;;26.67;39.62
70976;BME280;58635;51.198;6.010;2023-06-10T05:37:01;101287.09;;;26.84;39.46
70976;BME280;58635;51.198;6.010;2023-06-10T05:39:45;101277.91;;;26.95;39.29
70976;BME280;58635;51.198;6.010;2023-06-10T05:42:29;101288.00;;;27.12;39.27
70976;BME280;58635;51.198;6.010;2023-06-10T05:45:13;101284.78;;;27.29;39.08
70976;BME280;58635;51.198;6.010;2023-06-10T05:47:57;101286.59;;;27.47;38.57
70976;BME280;58635;51.198;6.010;2023-06-10T05:50:41;101291.59;;;27.62;38.43
70976;BME280;58635;51.198;6.010;2023-06-10T05:53:26;101285.22;;;27.77;37.71
70976;BME280;58635;51.198;6.010;2023-06-10T05:56:10;101291.31;;;27.91;38.06
70976;BME280;58635;51.198;6.010;2023-06-10T05:58:54;101287.84;;;28.05;37.62
70976;BME280;58635;51.198;6.010;2023-06-10T06:01:38;101287.16;;;28.13;37.58
70976;BME280;58635;51.198;6.010;2023-06-10T06:04:23;101286.75;;;28.19;37.24
70976;BME280;58635;51.198;6.010;2023-06-10T06:07:07;101283.66;;;28.26;37.25
70976;BME280;58635;51.198;6.010;2023-06-10T06:09:51;101282.81;;;28.31;37.12
70976;BME280;58635;51.198;6.010;2023-06-10T06:12:34;101284.81;;;28.47;37.14
70976;BME280;58635;51.198;6.010;2023-06-10T06:15:18;101287.78;;;28.68;37.03
70976;BME280;58635;51.198;6.010;2023-06-10T06:18:02;101296.88;;;28.90;36.83
70976;BME280;58635;51.198;6.010;2023-06-10T06:20:46;101295.09;;;29.07;36.06
70976;BME280;58635;51.198;6.010;2023-06-10T06:23:30;101295.16;;;29.16;36.21
70976;BME280;58635;51.198;6.010;2023-06-10T06:26:15;101290.94;;;29.24;35.80
70976;BME280;58635;51.198;6.010;2023-06-10T06:28:58;101297.41;;;29.31;35.87
70976;BME280;58635;51.198;6.010;2023-06-10T06:31:42;101281.78;;;29.38;35.95
70976;BME280;58635;51.198;6.010;2023-06-10T06:34:26;101301.19;;;29.61;35.41
70976;BME280;58635;51.198;6.010;2023-06-10T06:37:10;101302.00;;;29.79;35.57
70976;BME280;58635;51.198;6.010;2023-06-10T06:39:54;101298.44;;;30.01;35.10
70976;BME280;58635;51.198;6.010;2023-06-10T06:42:38;101297.41;;;30.19;34.62
70976;BME280;58635;51.198;6.010;2023-06-10T06:45:22;101305.53;;;30.40;34.43
70976;BME280;58635;51.198;6.010;2023-06-10T06:48:06;101308.53;;;30.65;33.87
70976;BME280;58635;51.198;6.010;2023-06-10T06:50:50;101293.16;;;30.79;33.44
70976;BME280;58635;51.198;6.010;2023-06-10T06:53:34;101304.44;;;30.93;33.56
70976;BME280;58635;51.198;6.010;2023-06-10T06:56:19;101306.25;;;31.10;33.09
70976;BME280;58635;51.198;6.010;2023-06-10T06:59:03;101309.84;;;31.31;33.07
70976;BME280;58635;51.198;6.010;2023-06-10T07:01:47;101307.59;;;31.42;32.36
70976;BME280;58635;51.198;6.010;2023-06-10T07:04:31;101314.41;;;31.60;32.30
70976;BME280;58635;51.198;6.010;2023-06-10T07:07:15;101321.75;;;31.72;32.27
70976;BME280;58635;51.198;6.010;2023-06-10T07:09:59;101317.94;;;31.82;31.68
70976;BME280;58635;51.198;6.010;2023-06-10T07:12:43;101322.44;;;31.98;31.31
70976;BME280;58635;51.198;6.010;2023-06-10T07:15:27;101323.47;;;32.06;31.13
70976;BME280;58635;51.198;6.010;2023-06-10T07:18:11;101324.13;;;32.24;30.42
70976;BME280;58635;51.198;6.010;2023-06-10T07:20:55;101328.59;;;32.41;30.25
70976;BME280;58635;51.198;6.010;2023-06-10T07:23:42;101331.84;;;32.46;29.31
70976;BME280;58635;51.198;6.010;2023-06-10T07:26:27;101326.06;;;32.44;29.46
70976;BME280;58635;51.198;6.010;2023-06-10T07:29:11;101325.41;;;32.47;29.60
70976;BME280;58635;51.198;6.010;2023-06-10T07:31:55;101316.25;;;32.48;29.07
70976;BME280;58635;51.198;6.010;2023-06-10T07:34:39;101321.72;;;32.52;29.00
70976;BME280;58635;51.198;6.010;2023-06-10T07:37:23;101322.81;;;32.72;28.66
70976;BME280;58635;51.198;6.010;2023-06-10T07:40:07;101321.88;;;32.89;28.61
70976;BME280;58635;51.198;6.010;2023-06-10T07:42:51;101328.16;;;32.93;28.40
70976;BME280;58635;51.198;6.010;2023-06-10T07:45:36;101332.63;;;33.01;28.25
70976;BME280;58635;51.198;6.010;2023-06-10T07:48:20;101326.06;;;33.23;27.97
70976;BME280;58635;51.198;6.010;2023-06-10T07:51:04;101322.84;;;33.29;27.83
70976;BME280;58635;51.198;6.010;2023-06-10T07:53:48;101326.84;;;33.23;27.82
70976;BME280;58635;51.198;6.010;2023-06-10T07:56:32;101321.47;;;33.11;28.08
70976;BME280;58635;51.198;6.010;2023-06-10T07:59:16;101327.72;;;33.15;27.90
70976;BME280;58635;51.198;6.010;2023-06-10T08:02:00;101325.72;;;33.24;27.57
70976;BME280;58635;51.198;6.010;2023-06-10T08:04:44;101324.75;;;33.29;27.47
70976;BME280;58635;51.198;6.010;2023-06-10T08:07:28;101321.16;;;33.25;27.56
70976;BME280;58635;51.198;6.010;2023-06-10T08:10:12;101324.41;;;33.18;28.07
70976;BME280;58635;51.198;6.010;2023-06-10T08:12:56;101318.44;;;33.12;28.20
70976;BME280;58635;51.198;6.010;2023-06-10T08:15:40;101328.06;;;33.26;27.77
70976;BME280;58635;51.198;6.010;2023-06-10T08:18:24;101330.19;;;33.20;27.89
70976;BME280;58635;51.198;6.010;2023-06-10T08:21:08;101322.50;;;33.19;28.19
70976;BME280;58635;51.198;6.010;2023-06-10T08:23:52;101333.78;;;33.24;28.23
70976;BME280;58635;51.198;6.010;2023-06-10T08:26:39;101333.56;;;33.29;28.04
70976;BME280;58635;51.198;6.010;2023-06-10T08:29:23;101329.00;;;33.30;28.20
70976;BME280;58635;51.198;6.010;2023-06-10T08:32:07;101327.31;;;33.37;27.66
70976;BME280;58635;51.198;6.010;2023-06-10T08:34:51;101315.03;;;33.36;27.84
70976;BME280;58635;51.198;6.010;2023-06-10T08:37:35;101320.41;;;33.36;27.81
70976;BME280;58635;51.198;6.010;2023-06-10T08:40:19;101322.31;;;33.36;28.15
70976;BME280;58635;51.198;6.010;2023-06-10T08:43:08;101327.31;;;33.37;27.62
70976;BME280;58635;51.198;6.010;2023-06-10T08:45:55;101326.94;;;33.27;27.70
70976;BME280;58635;51.198;6.010;2023-06-10T08:48:44;101325.72;;;33.12;27.50
70976;BME280;58635;51.198;6.010;2023-06-10T08:51:29;101322.25;;;33.11;27.68
70976;BME280;58635;51.198;6.010;2023-06-10T08:54:17;101315.44;;;33.14;27.87
70976;BME280;58635;51.198;6.010;2023-06-10T08:57:05;101322.16;;;33.20;27.91
70976;BME280;58635;51.198;6.010;2023-06-10T08:59:50;101316.13;;;33.23;27.60
70976;BME280;58635;51.198;6.010;2023-06-10T09:02:36;101323.63;;;33.18;28.02
70976;BME280;58635;51.198;6.010;2023-06-10T09:05:20;101314.53;;;33.10;28.06
70976;BME280;58635;51.198;6.010;2023-06-10T09:08:05;101309.63;;;33.12;28.11
70976;BME280;58635;51.198;6.010;2023-06-10T09:10:50;101316.22;;;33.27;28.15
70976;BME280;58635;51.198;6.010;2023-06-10T09:13:33;101312.22;;;33.33;27.92
70976;BME280;58635;51.198;6.010;2023-06-10T09:16:17;101318.84;;;33.48;28.09
70976;BME280;58635;51.198;6.010;2023-06-10T09:19:02;101315.94;;;33.65;28.02
70976;BME280;58635;51.198;6.010;2023-06-10T09:21:51;101316.72;;;33.78;27.70
70976;BME280;58635;51.198;6.010;2023-06-10T09:24:35;101308.06;;;33.84;27.63
70976;BME280;58635;51.198;6.010;2023-06-10T09:27:20;101309.44;;;33.78;27.13
70976;BME280;58635;51.198;6.010;2023-06-10T09:30:04;101307.22;;;33.68;27.40
70976;BME280;58635;51.198;6.010;2023-06-10T09:32:48;101308.44;;;33.70;27.50
70976;BME280;58635;51.198;6.010;2023-06-10T09:35:33;101313.25;;;33.77;27.48
70976;BME280;58635;51.198;6.010;2023-06-10T09:38:21;101302.88;;;33.88;26.74
70976;BME280;58635;51.198;6.010;2023-06-10T09:41:05;101309.44;;;33.78;26.95
70976;BME280;58635;51.198;6.010;2023-06-10T09:43:49;101313.59;;;33.76;26.98
70976;BME280;58635;51.198;6.010;2023-06-10T09:46:33;101306.75;;;33.78;26.84
70976;BME280;58635;51.198;6.010;2023-06-10T09:49:17;101304.44;;;33.89;26.81
70976;BME280;58635;51.198;6.010;2023-06-10T09:52:05;101299.81;;;34.01;26.84
70976;BME280;58635;51.198;6.010;2023-06-10T09:54:50;101306.19;;;33.97;26.13
70976;BME280;58635;51.198;6.010;2023-06-10T09:57:35;101297.81;;;33.98;26.28
70976;BME280;58635;51.198;6.010;2023-06-10T10:00:22;101299.47;;;34.03;26.06
70976;BME280;58635;51.198;6.010;2023-06-10T10:03:06;101300.47;;;34.11;26.34
70976;BME280;58635;51.198;6.010;2023-06-10T10:05:57;101299.38;;;34.27;26.20
70976;BME280;58635;51.198;6.010;2023-06-10T10:08:42;101305.41;;;34.37;25.91
70976;BME280;58635;51.198;6.010;2023-06-10T10:11:27;101296.69;;;34.40;25.81
70976;BME280;58635;51.198;6.010;2023-06-10T10:14:12;101296.69;;;34.40;26.05
70976;BME280;58635;51.198;6.010;2023-06-10T10:16:59;101300.94;;;34.41;25.91
70976;BME280;58635;51.198;6.010;2023-06-10T10:19:53;101296.09;;;34.46;25.77
70976;BME280;58635;51.198;6.010;2023-06-10T10:22:43;101296.72;;;34.55;25.53
70976;BME280;58635;51.198;6.010;2023-06-10T10:25:30;101293.53;;;34.66;25.70
70976;BME280;58635;51.198;6.010;2023-06-10T10:28:18;101291.91;;;34.77;25.34
70976;BME280;58635;51.198;6.010;2023-06-10T10:31:08;101294.09;;;34.87;25.08
70976;BME280;58635;51.198;6.010;2023-06-10T10:33:58;101286.66;;;34.96;24.74
70976;BME280;58635;51.198;6.010;2023-06-10T10:36:43;101287.59;;;35.04;24.49
70976;BME280;58635;51.198;6.010;2023-06-10T10:39:28;101285.03;;;35.07;24.79
70976;BME280;58635;51.198;6.010;2023-06-10T10:42:14;101276.59;;;35.09;24.59
70976;BME280;58635;51.198;6.010;2023-06-10T10:45:00;101277.03;;;35.11;24.30
70976;BME280;58635;51.198;6.010;2023-06-10T10:47:45;101274.16;;;35.20;24.24
70976;BME280;58635;51.198;6.010;2023-06-10T10:50:29;101267.97;;;35.35;24.30
70976;BME280;58635;51.198;6.010;2023-06-10T10:53:19;101266.41;;;35.50;23.70
70976;BME280;58635;51.198;6.010;2023-06-10T10:56:13;101271.19;;;35.56;24.06
70976;BME280;58635;51.198;6.010;2023-06-10T10:59:03;101276.78;;;35.67;23.51
70976;BME280;58635;51.198;6.010;2023-06-10T11:01:48;101271.34;;;35.83;23.03
70976;BME280;58635;51.198;6.010;2023-06-10T11:04:33;101280.47;;;35.94;22.79
70976;BME280;58635;51.198;6.010;2023-06-10T11:07:20;101274.44;;;36.00;22.10
70976;BME280;58635;51.198;6.010;2023-06-10T11:10:12;101263.03;;;36.07;21.82
70976;BME280;58635;51.198;6.010;2023-06-10T11:12:57;101274.16;;;36.25;21.99
70976;BME280;58635;51.198;6.010;2023-06-10T11:15:46;101270.50;;;36.56;21.93
70976;BME280;58635;51.198;6.010;2023-06-10T11:18:35;101274.56;;;36.88;21.08
70976;BME280;58635;51.198;6.010;2023-06-10T11:21:23;101275.31;;;37.12;21.23
70976;BME280;58635;51.198;6.010;2023-06-10T11:24:12;101262.81;;;37.27;20.41
70976;BME280;58635;51.198;6.010;2023-06-10T11:27:20;101258.88;;;37.21;20.56
70976;BME280;58635;51.198;6.010;2023-06-10T11:32:50;101261.50;;;37.17;20.89
70976;BME280;58635;51.198;6.010;2023-06-10T11:35:35;101251.66;;;37.28;20.42
70976;BME280;58635;51.198;6.010;2023-06-10T11:38:19;101258.84;;;37.43;20.60
70976;BME280;58635;51.198;6.010;2023-06-10T11:41:03;101254.31;;;37.51;20.03
70976;BME280;58635;51.198;6.010;2023-06-10T11:43:47;101263.69;;;37.61;20.18
70976;BME280;58635;51.198;6.010;2023-06-10T11:46:31;101256.38;;;37.61;19.67
70976;BME280;58635;51.198;6.010;2023-06-10T11:49:15;101245.97;;;37.63;19.71
70976;BME280;58635;51.198;6.010;2023-06-10T11:51:58;101244.69;;;37.80;19.69
70976;BME280;58635;51.198;6.010;2023-06-10T11:54:53;101239.41;;;37.91;19.54
70976;BME280;58635;51.198;6.010;2023-06-10T11:57:37;101252.94;;;37.94;19.09
70976;BME280;58635;51.198;6.010;2023-06-10T12:00:21;101248.91;;;37.78;19.09
70976;BME280;58635;51.198;6.010;2023-06-10T12:03:05;101232.94;;;37.69;19.39
70976;BME280;58635;51.198;6.010;2023-06-10T12:06:06;101241.97;;;37.80;19.37
70976;BME280;58635;51.198;6.010;2023-06-10T12:08:50;101244.28;;;37.78;19.62
70976;BME280;58635;51.198;6.010;2023-06-10T12:11:34;101231.94;;;37.77;19.49
70976;BME280;58635;51.198;6.010;2023-06-10T12:14:50;101231.78;;;38.00;19.25
70976;BME280;58635;51.198;6.010;2023-06-10T12:17:37;101239.31;;;38.17;18.91
70976;BME280;58635;51.198;6.010;2023-06-10T12:20:29;101233.34;;;38.01;19.19
70976;BME280;58635;51.198;6.010;2023-06-10T12:23:13;101222.84;;;37.92;18.99
70976;BME280;58635;51.198;6.010;2023-06-10T12:25:59;101221.09;;;38.11;19.04
70976;BME280;58635;51.198;6.010;2023-06-10T12:28:50;101225.63;;;38.37;18.95
70976;BME280;58635;51.198;6.010;2023-06-10T12:31:52;101226.75;;;38.36;18.93
70976;BME280;58635;51.198;6.010;2023-06-10T12:34:38;101225.56;;;38.29;18.91
70976;BME280;58635;51.198;6.010;2023-06-10T12:37:22;101223.66;;;38.33;18.92
70976;BME280;58635;51.198;6.010;2023-06-10T12:40:07;101219.44;;;38.36;18.99
70976;BME280;58635;51.198;6.010;2023-06-10T12:42:52;101221.16;;;38.18;18.88
70976;BME280;58635;51.198;6.010;2023-06-10T12:45:37;101220.72;;;38.12;18.72
70976;BME280;58635;51.198;6.010;2023-06-10T12:48:24;101212.03;;;38.26;18.58
70976;BME280;58635;51.198;6.010;2023-06-10T12:51:08;101210.72;;;38.53;18.50
70976;BME280;58635;51.198;6.010;2023-06-10T12:53:52;101215.19;;;38.83;18.48
70976;BME280;58635;51.198;6.010;2023-06-10T12:56:36;101219.59;;;39.02;17.85
70976;BME280;58635;51.198;6.010;2023-06-10T12:59:20;101214.50;;;38.93;17.58
70976;BME280;58635;51.198;6.010;2023-06-10T13:02:04;101214.78;;;38.74;17.34
70976;BME280;58635;51.198;6.010;2023-06-10T13:04:47;101213.03;;;38.55;17.27
70976;BME280;58635;51.198;6.010;2023-06-10T13:07:31;101215.19;;;38.35;17.59
70976;BME280;58635;51.198;6.010;2023-06-10T13:10:16;101221.16;;;38.18;18.12
70976;BME280;58635;51.198;6.010;2023-06-10T13:13:00;101217.59;;;38.07;18.41
70976;BME280;58635;51.198;6.010;2023-06-10T13:15:45;101213.31;;;38.06;18.48
70976;BME280;58635;51.198;6.010;2023-06-10T13:18:29;101200.97;;;38.04;18.59
70976;BME280;58635;51.198;6.010;2023-06-10T13:21:13;101199.31;;;38.30;18.32
70976;BME280;58635;51.198;6.010;2023-06-10T13:23:57;101201.44;;;38.51;18.45
70976;BME280;58635;51.198;6.010;2023-06-10T13:26:41;101203.47;;;38.65;18.17
70976;BME280;58635;51.198;6.010;2023-06-10T13:29:25;101193.88;;;38.71;18.29
70976;BME280;58635;51.198;6.010;2023-06-10T13:32:09;101191.25;;;38.81;17.56
70976;BME280;58635;51.198;6.010;2023-06-10T13:34:53;101194.06;;;38.99;17.51
70976;BME280;58635;51.198;6.010;2023-06-10T13:37:40;101196.81;;;39.06;17.49
70976;BME280;58635;51.198;6.010;2023-06-10T13:40:24;101184.91;;;39.18;17.14
70976;BME280;58635;51.198;6.010;2023-06-10T13:43:08;101186.50;;;39.26;17.29
70976;BME280;58635;51.198;6.010;2023-06-10T13:45:53;101186.41;;;39.08;17.34
70976;BME280;58635;51.198;6.010;2023-06-10T13:48:37;101180.03;;;38.79;17.82
70976;BME280;58635;51.198;6.010;2023-06-10T13:51:21;101184.78;;;38.45;17.67
70976;BME280;58635;51.198;6.010;2023-06-10T13:54:05;101175.50;;;38.02;18.14
70976;BME280;58635;51.198;6.010;2023-06-10T13:56:49;101191.94;;;37.56;18.85
70976;BME280;58635;51.198;6.010;2023-06-10T13:59:33;101186.59;;;37.30;19.23
70976;BME280;58635;51.198;6.010;2023-06-10T14:02:17;101187.28;;;37.00;19.42
70976;BME280;58635;51.198;6.010;2023-06-10T14:05:01;101186.41;;;36.70;19.56
70976;BME280;58635;51.198;6.010;2023-06-10T14:07:45;101183.22;;;36.38;20.16
70976;BME280;58635;51.198;6.010;2023-06-10T14:10:29;101187.97;;;36.25;20.87
70976;BME280;58635;51.198;6.010;2023-06-10T14:13:12;101176.06;;;36.26;20.71
70976;BME280;58635;51.198;6.010;2023-06-10T14:15:56;101183.47;;;36.32;20.31
70976;BME280;58635;51.198;6.010;2023-06-10T14:18:41;101187.25;;;36.28;20.47
70976;BME280;58635;51.198;6.010;2023-06-10T14:21:25;101192.56;;;36.24;21.25
70976;BME280;58635;51.198;6.010;2023-06-10T14:24:09;101183.22;;;36.18;20.98
70976;BME280;58635;51.198;6.010;2023-06-10T14:26:53;101183.38;;;36.06;21.40